WetterOnline ( http://www.wetteronline.de )

Wetter aktuell Cuxhaven

Aktuelles Wetter: Cuxhaven (12m)

6-stündlich | Neueste Meldungen
Ortszeit Temperatur Wetter
So, 22.07. 20:00 20.0° C fast wolkenlos
So, 22.07. 14:00 22.0° C leicht bewölkt
So, 22.07. 8:00 20.5° C wolkenlos
So, 22.07. 2:00 20.8° C bewölkt
Sa, 21.07. 20:00 22.2° C bewölkt
Sa, 21.07. 14:00 25.4° C wolkig
Sa, 21.07. 8:00 19.1° C bewölkt
Sa, 21.07. 2:00 18.6° C bewölkt
Ortszeit Temperatur Wetter
Mo, 23.07. 0:00 18.2° C fast wolkenlos
So, 22.07. 23:40 18.2° C wolkenlos
So, 22.07. 23:30 18.3° C wolkenlos
So, 22.07. 23:20 18.3° C wolkenlos
So, 22.07. 23:10 18.2° C wolkenlos
So, 22.07. 23:00 18.4° C fast wolkenlos
So, 22.07. 22:50 18.4° C fast wolkenlos
So, 22.07. 22:30 18.5° C leicht bewölkt
So, 22.07. 22:00 18.7° C fast wolkenlos
So, 22.07. 21:30 18.9° C fast wolkenlos
So, 22.07. 21:00 19.3° C wolkenlos
Ortszeit Relative Feuchte Sichtweite
So, 22.07. 20:00 75% 45 km
So, 22.07. 14:00 67% 3.7 km
So, 22.07. 8:00 65% 55 km
So, 22.07. 2:00 68% 40 km
Sa, 21.07. 20:00 74% 35 km
Sa, 21.07. 14:00 45% 19 km
Sa, 21.07. 8:00 63% 30 km
Sa, 21.07. 2:00 74% 40 km
Ortszeit Relative Feuchte Sichtweite
Mo, 23.07. 0:00 83% 70 km
So, 22.07. 23:40 83% -
So, 22.07. 23:30 83% 70 km
So, 22.07. 23:20 83% -
So, 22.07. 23:10 82% -
So, 22.07. 23:00 83% 70 km
So, 22.07. 22:50 83% -
So, 22.07. 22:30 82% 70 km
So, 22.07. 22:00 80% 65 km
So, 22.07. 21:30 79% 65 km
So, 22.07. 21:00 79% 65 km
Ortszeit Niederschlagsmenge Niederschlagsart
So, 22.07. 20:00 0.0 l/m2 in 12 Std. -
So, 22.07. 14:00 0.0 l/m2 in 6 Std. -
So, 22.07. 8:00 0.1 l/m2 in 12 Std. Sprühregen
So, 22.07. 2:00 0.0 l/m2 in 6 Std. -
Sa, 21.07. 20:00 0.0 l/m2 in 12 Std. -
Sa, 21.07. 14:00 0.0 l/m2 in 6 Std. -
Sa, 21.07. 8:00 0.0 l/m2 in 12 Std. -
Sa, 21.07. 2:00 0.0 l/m2 in 6 Std. -
Ortszeit Niederschlagsmenge Niederschlagsart
Mo, 23.07. 0:00 0.0 l/m2 in 1 Std. -
So, 22.07. 23:40 keine Meldung -
So, 22.07. 23:30 0.0 l/m2 in 1 Std. -
So, 22.07. 23:20 keine Meldung -
So, 22.07. 23:10 keine Meldung -
So, 22.07. 23:00 0.0 l/m2 in 1 Std. -
So, 22.07. 22:50 keine Meldung -
So, 22.07. 22:30 0.0 l/m2 in 1 Std. -
So, 22.07. 22:00 0.0 l/m2 in 1 Std. -
So, 22.07. 21:30 0.0 l/m2 in 1 Std. -
So, 22.07. 21:00 0.0 l/m2 in 1 Std. -
Ortszeit Stärke Spitze Richtung
km/h Bft. km/h Grad Sektor
So, 22.07. 20:00 20 4 41 310° NW
So, 22.07. 14:00 22 4 36 280° W
So, 22.07. 8:00 17 3 24 330° NW
So, 22.07. 2:00 7 2 29 60° NO
Sa, 21.07. 20:00 7 2 24 20° N
Sa, 21.07. 14:00 20 4 28 90° O
Sa, 21.07. 8:00 18 3 22 80° O
Sa, 21.07. 2:00 17 3 33 50° NO
Ortszeit Stärke Spitze Richtung
km/h Bft. km/h Grad Sektor
Mo, 23.07. 0:00 13 3 19 300° NW
So, 22.07. 23:40 13 3 - 300° NW
So, 22.07. 23:30 14 3 18 300° NW
So, 22.07. 23:20 14 3 - 300° NW
So, 22.07. 23:10 13 3 - 300° NW
So, 22.07. 23:00 15 3 24 300° NW
So, 22.07. 22:50 15 3 - 300° NW
So, 22.07. 22:30 15 3 22 300° NW
So, 22.07. 22:00 17 3 22 300° NW
So, 22.07. 21:30 14 3 22 300° NW
So, 22.07. 21:00 11 2 22 300° NW
Ortszeit Untergrenze Bedeckung Gattung
total tief tief mittel hoch
So, 22.07. 20:00 480 m 1/8 1/8 - - -
So, 22.07. 14:00 720 m 3/8 3/8 - - -
So, 22.07. 8:00 - 0/8 0/8 - - -
So, 22.07. 2:00 2100 m 8/8 5/8 - - -
Sa, 21.07. 20:00 2700 m 8/8 7/8 - - -
Sa, 21.07. 14:00 3600 m 6/8 6/8 - - -
Sa, 21.07. 8:00 2700 m 8/8 7/8 - - -
Sa, 21.07. 2:00 2100 m 7/8 6/8 - - -
Ortszeit Bedeckungsgrad in Achtel und Wolkenuntergrenze
Mo, 23.07. 0:00 1(480m)
So, 22.07. 23:40 keine Wolken
So, 22.07. 23:30 keine Wolken
So, 22.07. 23:20 keine Wolken
So, 22.07. 23:10 keine Wolken
So, 22.07. 23:00 1(450m)
So, 22.07. 22:50 1(450m)
So, 22.07. 22:30 2(450m)
So, 22.07. 22:00 1(450m)
So, 22.07. 21:30 1(450m)
So, 22.07. 21:00 keine Wolken
Ortszeit Luftdruck NN (hPa) Tendenz (hPa in 3 Std.)
So, 22.07. 20:00 1015 + 0,3
So, 22.07. 14:00 1014 + 0,7
So, 22.07. 8:00 1012 + 0,3
So, 22.07. 2:00 1012 - 0,2
Sa, 21.07. 20:00 1011 - 0,7
Sa, 21.07. 14:00 1012 - 0,5
Sa, 21.07. 8:00 1013 - 0,1
Sa, 21.07. 2:00 1013 - 0,1
Ortszeit Luftdruck NN (hPa) Tendenz (hPa in 3 Std.)
Mo, 23.07. 0:00 1016 + 0,8
So, 22.07. 23:40 1016 keine Meldung
So, 22.07. 23:30 1016 + 0,8
So, 22.07. 23:20 1016 keine Meldung
So, 22.07. 23:10 1016 keine Meldung
So, 22.07. 23:00 1016 + 0,8
So, 22.07. 22:50 1016 keine Meldung
So, 22.07. 22:30 1016 + 0,9
So, 22.07. 22:00 1015 + 0,6
So, 22.07. 21:30 1015 + 0,4
So, 22.07. 21:00 1015 + 0,2
Ortszeit Schneehöhe (cm)
So, 22.07. 20:00 -
So, 22.07. 14:00 -
So, 22.07. 8:00 -
So, 22.07. 2:00 -
Sa, 21.07. 20:00 -
Sa, 21.07. 14:00 -
Sa, 21.07. 8:00 -
Sa, 21.07. 2:00 -
Ortszeit Schneehöhe (cm)
Mo, 23.07. 0:00 -
So, 22.07. 23:40 -
So, 22.07. 23:30 -
So, 22.07. 23:20 -
So, 22.07. 23:10 -
So, 22.07. 23:00 -
So, 22.07. 22:50 -
So, 22.07. 22:30 -
So, 22.07. 22:00 -
So, 22.07. 21:30 -
So, 22.07. 21:00 -
Link zu dieser Seite / Seite empfehlen

Das Wetter in ...